Swansea, United Kingdom
Current Conditions -  °F | °C
As of 9:50 AM on Saturday 29 Nov 2014 (Local Time) from EGOP Reporting Station
Broken Clouds Broken Clouds  
Wind Chill: 54°   Ceiling: 5000
Heat Index: 54°   Visibility: 6mi
Dew Point: 50°   Wind: 3mph
Humidity: 88%   Direction: 80°E
Pressure: 29.77"   Gusts: NA
Location:  51.62°N, 3.94°W
Report Text: EGOP 290950Z AUTO 08003KT 9999 // BKN050/// 12/10 Q1008
Loading
Personal Weather Stations






























Interactive Weather Map New forecast layout! Learn more

10-Day Weather Forecast

Advertisements
Track Severe Weather on mobile